sensor_id;sensor_type;location;lat;lon;timestamp;temperature;humidity
29939;DHT22;16799;50.844;5.304;2022-09-29T00:01:48;7.60;99.90
29939;DHT22;16799;50.844;5.304;2022-09-29T00:04:13;7.60;99.90
29939;DHT22;16799;50.844;5.304;2022-09-29T00:06:39;7.70;99.90
29939;DHT22;16799;50.844;5.304;2022-09-29T00:09:05;7.60;99.90
29939;DHT22;16799;50.844;5.304;2022-09-29T00:11:30;7.50;99.90
29939;DHT22;16799;50.844;5.304;2022-09-29T00:13:56;7.40;99.90
29939;DHT22;16799;50.844;5.304;2022-09-29T00:16:21;7.40;99.90
29939;DHT22;16799;50.844;5.304;2022-09-29T00:18:47;7.50;99.90
29939;DHT22;16799;50.844;5.304;2022-09-29T00:21:17;7.50;99.90
29939;DHT22;16799;50.844;5.304;2022-09-29T00:23:47;7.50;99.90
29939;DHT22;16799;50.844;5.304;2022-09-29T00:26:20;7.40;99.90
29939;DHT22;16799;50.844;5.304;2022-09-29T00:28:53;7.40;99.90
29939;DHT22;16799;50.844;5.304;2022-09-29T00:31:22;7.40;99.90
29939;DHT22;16799;50.844;5.304;2022-09-29T00:33:48;7.40;99.90
29939;DHT22;16799;50.844;5.304;2022-09-29T00:36:18;7.40;99.90
29939;DHT22;16799;50.844;5.304;2022-09-29T00:38:45;7.20;99.90
29939;DHT22;16799;50.844;5.304;2022-09-29T00:41:26;7.20;99.90
29939;DHT22;16799;50.844;5.304;2022-09-29T00:44:03;7.30;99.90
29939;DHT22;16799;50.844;5.304;2022-09-29T00:46:50;7.20;99.90
29939;DHT22;16799;50.844;5.304;2022-09-29T00:52:01;7.20;99.90
29939;DHT22;16799;50.844;5.304;2022-09-29T00:54:32;7.10;99.90
29939;DHT22;16799;50.844;5.304;2022-09-29T00:57:01;7.10;99.90
29939;DHT22;16799;50.844;5.304;2022-09-29T00:59:39;7.20;99.90
29939;DHT22;16799;50.844;5.304;2022-09-29T01:02:12;7.20;99.90
29939;DHT22;16799;50.844;5.304;2022-09-29T01:04:38;7.00;99.90
29939;DHT22;16799;50.844;5.304;2022-09-29T01:07:05;6.90;99.90
29939;DHT22;16799;50.844;5.304;2022-09-29T01:09:35;6.70;99.90
29939;DHT22;16799;50.844;5.304;2022-09-29T01:12:02;6.70;99.90
29939;DHT22;16799;50.844;5.304;2022-09-29T01:14:29;6.60;99.90
29939;DHT22;16799;50.844;5.304;2022-09-29T01:16:56;6.70;99.90
29939;DHT22;16799;50.844;5.304;2022-09-29T01:22:09;6.60;99.90
29939;DHT22;16799;50.844;5.304;2022-09-29T01:36:14;6.60;99.90
29939;DHT22;16799;50.844;5.304;2022-09-29T01:41:54;6.60;99.90
29939;DHT22;16799;50.844;5.304;2022-09-29T01:44:36;6.60;99.90
29939;DHT22;16799;50.844;5.304;2022-09-29T01:47:26;6.60;99.90
29939;DHT22;16799;50.844;5.304;2022-09-29T01:49:59;6.40;99.90
29939;DHT22;16799;50.844;5.304;2022-09-29T01:52:30;6.40;99.90
29939;DHT22;16799;50.844;5.304;2022-09-29T01:54:58;6.30;99.90
29939;DHT22;16799;50.844;5.304;2022-09-29T01:57:33;6.40;99.90
29939;DHT22;16799;50.844;5.304;2022-09-29T02:00:05;6.30;99.90
29939;DHT22;16799;50.844;5.304;2022-09-29T02:05:08;6.30;99.90
29939;DHT22;16799;50.844;5.304;2022-09-29T02:07:40;6.30;99.90
29939;DHT22;16799;50.844;5.304;2022-09-29T02:10:13;6.30;99.90
29939;DHT22;16799;50.844;5.304;2022-09-29T02:12:43;6.20;99.90
29939;DHT22;16799;50.844;5.304;2022-09-29T02:15:13;6.20;99.90
29939;DHT22;16799;50.844;5.304;2022-09-29T02:17:43;6.10;99.90
29939;DHT22;16799;50.844;5.304;2022-09-29T02:20:11;6.20;99.90
29939;DHT22;16799;50.844;5.304;2022-09-29T02:22:37;6.10;99.90
29939;DHT22;16799;50.844;5.304;2022-09-29T02:25:03;6.20;99.90
29939;DHT22;16799;50.844;5.304;2022-09-29T02:27:30;6.20;99.90
29939;DHT22;16799;50.844;5.304;2022-09-29T02:29:58;6.10;99.90
29939;DHT22;16799;50.844;5.304;2022-09-29T02:32:24;6.10;99.90
29939;DHT22;16799;50.844;5.304;2022-09-29T02:34:51;6.00;99.90
29939;DHT22;16799;50.844;5.304;2022-09-29T02:37:47;6.10;99.90
29939;DHT22;16799;50.844;5.304;2022-09-29T02:56:17;5.90;99.90
29939;DHT22;16799;50.844;5.304;2022-09-29T02:58:46;6.00;99.90
29939;DHT22;16799;50.844;5.304;2022-09-29T03:01:14;6.00;99.90
29939;DHT22;16799;50.844;5.304;2022-09-29T03:03:41;6.00;99.90
29939;DHT22;16799;50.844;5.304;2022-09-29T03:06:08;6.00;99.90
29939;DHT22;16799;50.844;5.304;2022-09-29T03:08:34;5.90;99.90
29939;DHT22;16799;50.844;5.304;2022-09-29T03:10:59;5.90;99.90
29939;DHT22;16799;50.844;5.304;2022-09-29T03:13:25;5.80;99.90
29939;DHT22;16799;50.844;5.304;2022-09-29T03:15:51;5.80;99.90
29939;DHT22;16799;50.844;5.304;2022-09-29T03:18:17;5.80;99.90
29939;DHT22;16799;50.844;5.304;2022-09-29T03:20:42;5.80;99.90
29939;DHT22;16799;50.844;5.304;2022-09-29T03:23:08;5.80;99.90
29939;DHT22;16799;50.844;5.304;2022-09-29T03:25:33;5.80;99.90
29939;DHT22;16799;50.844;5.304;2022-09-29T03:27:59;5.80;99.90
29939;DHT22;16799;50.844;5.304;2022-09-29T03:30:25;5.90;99.90
29939;DHT22;16799;50.844;5.304;2022-09-29T03:32:51;6.00;99.90
29939;DHT22;16799;50.844;5.304;2022-09-29T03:35:16;6.10;99.90
29939;DHT22;16799;50.844;5.304;2022-09-29T03:37:42;6.00;99.90
29939;DHT22;16799;50.844;5.304;2022-09-29T03:40:08;5.90;99.90
29939;DHT22;16799;50.844;5.304;2022-09-29T03:42:34;6.00;99.90
29939;DHT22;16799;50.844;5.304;2022-09-29T03:45:00;5.90;99.90
29939;DHT22;16799;50.844;5.304;2022-09-29T03:47:25;5.90;99.90
29939;DHT22;16799;50.844;5.304;2022-09-29T03:49:51;5.90;99.90
29939;DHT22;16799;50.844;5.304;2022-09-29T03:52:17;5.90;99.90
29939;DHT22;16799;50.844;5.304;2022-09-29T03:54:43;5.90;99.90
29939;DHT22;16799;50.844;5.304;2022-09-29T03:57:09;5.90;99.90
29939;DHT22;16799;50.844;5.304;2022-09-29T03:59:34;5.80;99.90
29939;DHT22;16799;50.844;5.304;2022-09-29T04:02:00;5.80;99.90
29939;DHT22;16799;50.844;5.304;2022-09-29T04:04:25;5.80;99.90
29939;DHT22;16799;50.844;5.304;2022-09-29T04:06:51;5.80;99.90
29939;DHT22;16799;50.844;5.304;2022-09-29T04:09:17;5.70;99.90
29939;DHT22;16799;50.844;5.304;2022-09-29T04:11:42;5.70;99.90
29939;DHT22;16799;50.844;5.304;2022-09-29T04:14:08;5.80;99.90
29939;DHT22;16799;50.844;5.304;2022-09-29T04:16:33;5.90;99.90
29939;DHT22;16799;50.844;5.304;2022-09-29T04:18:59;5.90;99.90
29939;DHT22;16799;50.844;5.304;2022-09-29T04:21:25;5.70;99.90
29939;DHT22;16799;50.844;5.304;2022-09-29T04:23:50;5.60;99.90
29939;DHT22;16799;50.844;5.304;2022-09-29T04:26:16;5.60;99.90
29939;DHT22;16799;50.844;5.304;2022-09-29T04:28:43;5.70;99.90
29939;DHT22;16799;50.844;5.304;2022-09-29T04:31:09;5.80;99.90
29939;DHT22;16799;50.844;5.304;2022-09-29T04:33:34;5.80;99.90
29939;DHT22;16799;50.844;5.304;2022-09-29T04:36:00;5.80;99.90
29939;DHT22;16799;50.844;5.304;2022-09-29T04:38:26;5.80;99.90
29939;DHT22;16799;50.844;5.304;2022-09-29T04:40:52;5.80;99.90
29939;DHT22;16799;50.844;5.304;2022-09-29T04:43:17;5.80;99.90
29939;DHT22;16799;50.844;5.304;2022-09-29T04:45:43;5.70;99.90
29939;DHT22;16799;50.844;5.304;2022-09-29T04:48:09;5.60;99.90
29939;DHT22;16799;50.844;5.304;2022-09-29T04:50:35;5.50;99.90
29939;DHT22;16799;50.844;5.304;2022-09-29T04:53:00;5.70;99.90
29939;DHT22;16799;50.844;5.304;2022-09-29T04:55:26;6.00;99.90
29939;DHT22;16799;50.844;5.304;2022-09-29T04:57:52;5.90;99.90
29939;DHT22;16799;50.844;5.304;2022-09-29T05:00:18;5.80;99.90
29939;DHT22;16799;50.844;5.304;2022-09-29T05:02:43;5.70;99.90
29939;DHT22;16799;50.844;5.304;2022-09-29T05:05:10;5.70;99.90
29939;DHT22;16799;50.844;5.304;2022-09-29T05:07:37;5.90;99.90
29939;DHT22;16799;50.844;5.304;2022-09-29T05:10:04;5.80;99.90
29939;DHT22;16799;50.844;5.304;2022-09-29T05:12:30;5.70;99.90
29939;DHT22;16799;50.844;5.304;2022-09-29T05:14:56;5.80;99.90
29939;DHT22;16799;50.844;5.304;2022-09-29T05:17:22;5.80;99.90
29939;DHT22;16799;50.844;5.304;2022-09-29T05:19:47;5.80;99.90
29939;DHT22;16799;50.844;5.304;2022-09-29T05:22:13;5.90;99.90
29939;DHT22;16799;50.844;5.304;2022-09-29T05:24:39;5.80;99.90
29939;DHT22;16799;50.844;5.304;2022-09-29T05:27:04;5.60;99.90
29939;DHT22;16799;50.844;5.304;2022-09-29T05:29:30;5.50;99.90
29939;DHT22;16799;50.844;5.304;2022-09-29T05:31:56;5.50;99.90
29939;DHT22;16799;50.844;5.304;2022-09-29T05:34:21;5.50;99.90
29939;DHT22;16799;50.844;5.304;2022-09-29T05:36:47;5.40;99.90
29939;DHT22;16799;50.844;5.304;2022-09-29T05:39:13;5.40;99.90
29939;DHT22;16799;50.844;5.304;2022-09-29T05:41:38;5.50;99.90
29939;DHT22;16799;50.844;5.304;2022-09-29T05:44:04;5.50;99.90
29939;DHT22;16799;50.844;5.304;2022-09-29T05:46:30;5.60;99.90
29939;DHT22;16799;50.844;5.304;2022-09-29T05:48:56;5.60;99.90
29939;DHT22;16799;50.844;5.304;2022-09-29T05:51:23;5.70;99.90
29939;DHT22;16799;50.844;5.304;2022-09-29T05:53:51;5.70;99.90
29939;DHT22;16799;50.844;5.304;2022-09-29T05:56:19;5.60;99.90
29939;DHT22;16799;50.844;5.304;2022-09-29T05:58:45;5.50;99.90
29939;DHT22;16799;50.844;5.304;2022-09-29T06:01:13;5.40;99.90
29939;DHT22;16799;50.844;5.304;2022-09-29T06:03:39;5.50;99.90
29939;DHT22;16799;50.844;5.304;2022-09-29T06:06:07;5.60;99.90
29939;DHT22;16799;50.844;5.304;2022-09-29T06:08:33;5.70;99.90
29939;DHT22;16799;50.844;5.304;2022-09-29T06:11:07;5.70;99.90
29939;DHT22;16799;50.844;5.304;2022-09-29T06:13:36;5.80;99.90
29939;DHT22;16799;50.844;5.304;2022-09-29T06:16:01;5.80;99.90
29939;DHT22;16799;50.844;5.304;2022-09-29T06:18:27;5.90;99.90
29939;DHT22;16799;50.844;5.304;2022-09-29T06:20:53;5.90;99.90
29939;DHT22;16799;50.844;5.304;2022-09-29T06:23:18;6.00;99.90
29939;DHT22;16799;50.844;5.304;2022-09-29T06:25:44;6.00;99.90
29939;DHT22;16799;50.844;5.304;2022-09-29T06:28:09;6.10;99.90
29939;DHT22;16799;50.844;5.304;2022-09-29T06:30:35;6.10;99.90
29939;DHT22;16799;50.844;5.304;2022-09-29T06:33:01;6.10;99.90
29939;DHT22;16799;50.844;5.304;2022-09-29T06:35:26;6.20;99.90
29939;DHT22;16799;50.844;5.304;2022-09-29T06:38:10;6.40;99.90
29939;DHT22;16799;50.844;5.304;2022-09-29T06:40:36;6.30;99.90
29939;DHT22;16799;50.844;5.304;2022-09-29T06:43:02;6.40;99.90
29939;DHT22;16799;50.844;5.304;2022-09-29T06:45:27;6.40;99.90
29939;DHT22;16799;50.844;5.304;2022-09-29T06:47:59;6.80;99.90
29939;DHT22;16799;50.844;5.304;2022-09-29T06:50:26;7.00;99.90
29939;DHT22;16799;50.844;5.304;2022-09-29T06:52:52;7.10;99.90
29939;DHT22;16799;50.844;5.304;2022-09-29T06:55:17;7.20;99.90
29939;DHT22;16799;50.844;5.304;2022-09-29T06:57:43;7.30;99.90
29939;DHT22;16799;50.844;5.304;2022-09-29T07:00:10;7.50;99.90
29939;DHT22;16799;50.844;5.304;2022-09-29T07:02:36;7.70;99.90
29939;DHT22;16799;50.844;5.304;2022-09-29T07:05:02;7.70;99.90
29939;DHT22;16799;50.844;5.304;2022-09-29T07:07:28;7.70;99.90
29939;DHT22;16799;50.844;5.304;2022-09-29T07:09:54;7.70;99.90
29939;DHT22;16799;50.844;5.304;2022-09-29T07:12:20;7.80;99.90
29939;DHT22;16799;50.844;5.304;2022-09-29T07:14:45;8.00;99.90
29939;DHT22;16799;50.844;5.304;2022-09-29T07:17:11;8.10;99.90
29939;DHT22;16799;50.844;5.304;2022-09-29T07:19:39;8.20;99.90
29939;DHT22;16799;50.844;5.304;2022-09-29T07:22:05;8.30;99.90
29939;DHT22;16799;50.844;5.304;2022-09-29T07:24:31;8.40;99.90
29939;DHT22;16799;50.844;5.304;2022-09-29T07:26:57;8.40;99.90
29939;DHT22;16799;50.844;5.304;2022-09-29T07:29:22;8.60;99.90
29939;DHT22;16799;50.844;5.304;2022-09-29T07:31:48;8.70;99.90
29939;DHT22;16799;50.844;5.304;2022-09-29T07:34:17;8.60;99.90
29939;DHT22;16799;50.844;5.304;2022-09-29T07:36:42;8.90;99.90
29939;DHT22;16799;50.844;5.304;2022-09-29T07:39:08;9.10;99.90
29939;DHT22;16799;50.844;5.304;2022-09-29T07:41:34;9.30;99.90
29939;DHT22;16799;50.844;5.304;2022-09-29T07:44:00;9.50;99.90
29939;DHT22;16799;50.844;5.304;2022-09-29T07:46:25;9.50;99.90
29939;DHT22;16799;50.844;5.304;2022-09-29T07:48:51;9.30;99.90
29939;DHT22;16799;50.844;5.304;2022-09-29T07:51:18;9.20;99.90
29939;DHT22;16799;50.844;5.304;2022-09-29T07:53:44;9.40;99.90
29939;DHT22;16799;50.844;5.304;2022-09-29T07:56:19;9.80;99.90
29939;DHT22;16799;50.844;5.304;2022-09-29T07:58:46;10.00;99.90
29939;DHT22;16799;50.844;5.304;2022-09-29T08:01:14;10.20;99.90
29939;DHT22;16799;50.844;5.304;2022-09-29T08:03:42;10.40;99.90
29939;DHT22;16799;50.844;5.304;2022-09-29T08:06:09;10.70;99.90
29939;DHT22;16799;50.844;5.304;2022-09-29T08:08:36;10.80;99.90
29939;DHT22;16799;50.844;5.304;2022-09-29T08:11:07;10.80;99.90
29939;DHT22;16799;50.844;5.304;2022-09-29T08:13:33;11.00;99.90
29939;DHT22;16799;50.844;5.304;2022-09-29T08:16:01;10.70;99.90
29939;DHT22;16799;50.844;5.304;2022-09-29T08:18:28;10.60;99.90
29939;DHT22;16799;50.844;5.304;2022-09-29T08:20:54;10.80;99.90
29939;DHT22;16799;50.844;5.304;2022-09-29T08:23:21;11.10;99.90
29939;DHT22;16799;50.844;5.304;2022-09-29T08:25:47;11.30;99.90
29939;DHT22;16799;50.844;5.304;2022-09-29T08:28:13;11.80;99.90
29939;DHT22;16799;50.844;5.304;2022-09-29T08:30:39;11.50;99.90
29939;DHT22;16799;50.844;5.304;2022-09-29T08:33:05;11.80;99.90
29939;DHT22;16799;50.844;5.304;2022-09-29T08:35:36;11.50;99.90
29939;DHT22;16799;50.844;5.304;2022-09-29T08:38:02;11.40;99.90
29939;DHT22;16799;50.844;5.304;2022-09-29T08:40:29;11.50;99.90
29939;DHT22;16799;50.844;5.304;2022-09-29T08:43:14;11.80;99.90
29939;DHT22;16799;50.844;5.304;2022-09-29T08:45:47;11.90;99.90
29939;DHT22;16799;50.844;5.304;2022-09-29T08:48:23;12.30;99.90
29939;DHT22;16799;50.844;5.304;2022-09-29T08:50:55;12.60;99.90
29939;DHT22;16799;50.844;5.304;2022-09-29T08:53:21;12.90;99.90
29939;DHT22;16799;50.844;5.304;2022-09-29T08:58:20;13.00;99.90
29939;DHT22;16799;50.844;5.304;2022-09-29T09:17:23;13.30;99.90
29939;DHT22;16799;50.844;5.304;2022-09-29T09:20:17;13.80;99.90
29939;DHT22;16799;50.844;5.304;2022-09-29T09:25:37;14.20;99.90
29939;DHT22;16799;50.844;5.304;2022-09-29T09:28:04;14.50;99.90
29939;DHT22;16799;50.844;5.304;2022-09-29T09:30:38;14.20;99.90
29939;DHT22;16799;50.844;5.304;2022-09-29T09:33:12;14.30;99.90
29939;DHT22;16799;50.844;5.304;2022-09-29T09:35:40;14.30;99.90
29939;DHT22;16799;50.844;5.304;2022-09-29T09:38:24;14.50;99.90
29939;DHT22;16799;50.844;5.304;2022-09-29T09:40:54;14.40;99.90
29939;DHT22;16799;50.844;5.304;2022-09-29T09:43:29;14.80;99.90
29939;DHT22;16799;50.844;5.304;2022-09-29T09:48:34;15.20;99.50
29939;DHT22;16799;50.844;5.304;2022-09-29T09:54:30;15.10;99.90
29939;DHT22;16799;50.844;5.304;2022-09-29T10:02:56;16.00;97.90
29939;DHT22;16799;50.844;5.304;2022-09-29T10:08:01;16.70;96.20
29939;DHT22;16799;50.844;5.304;2022-09-29T10:10:28;17.40;95.50
29939;DHT22;16799;50.844;5.304;2022-09-29T10:13:07;18.00;93.70
29939;DHT22;16799;50.844;5.304;2022-09-29T10:21:42;19.70;83.10
29939;DHT22;16799;50.844;5.304;2022-09-29T10:24:21;19.10;84.60
29939;DHT22;16799;50.844;5.304;2022-09-29T10:26:49;18.70;88.40
29939;DHT22;16799;50.844;5.304;2022-09-29T10:29:41;19.80;85.40
29939;DHT22;16799;50.844;5.304;2022-09-29T10:32:08;21.40;81.10
29939;DHT22;16799;50.844;5.304;2022-09-29T10:34:40;21.60;78.10
29939;DHT22;16799;50.844;5.304;2022-09-29T10:37:37;21.10;77.20
29939;DHT22;16799;50.844;5.304;2022-09-29T10:42:37;20.70;74.90
29939;DHT22;16799;50.844;5.304;2022-09-29T10:45:28;19.00;80.50
29939;DHT22;16799;50.844;5.304;2022-09-29T10:50:28;20.80;75.70
29939;DHT22;16799;50.844;5.304;2022-09-29T10:52:58;22.10;74.00
29939;DHT22;16799;50.844;5.304;2022-09-29T10:55:31;23.50;69.90
29939;DHT22;16799;50.844;5.304;2022-09-29T10:58:00;22.80;69.10
29939;DHT22;16799;50.844;5.304;2022-09-29T11:00:33;22.70;66.90
29939;DHT22;16799;50.844;5.304;2022-09-29T11:03:21;21.50;70.20
29939;DHT22;16799;50.844;5.304;2022-09-29T11:06:26;21.10;71.80
29939;DHT22;16799;50.844;5.304;2022-09-29T11:11:28;21.60;69.60
29939;DHT22;16799;50.844;5.304;2022-09-29T11:13:54;22.60;69.70
29939;DHT22;16799;50.844;5.304;2022-09-29T11:16:32;24.50;69.20
29939;DHT22;16799;50.844;5.304;2022-09-29T11:19:06;26.80;62.70
29939;DHT22;16799;50.844;5.304;2022-09-29T11:22:00;28.10;56.00
29939;DHT22;16799;50.844;5.304;2022-09-29T11:28:18;22.80;60.70
29939;DHT22;16799;50.844;5.304;2022-09-29T11:30:26;20.80;65.90
29939;DHT22;16799;50.844;5.304;2022-09-29T11:36:01;21.40;64.30
29939;DHT22;16799;50.844;5.304;2022-09-29T11:44:46;20.40;66.00
29939;DHT22;16799;50.844;5.304;2022-09-29T11:47:33;20.20;67.50
29939;DHT22;16799;50.844;5.304;2022-09-29T12:01:56;22.80;59.40
29939;DHT22;16799;50.844;5.304;2022-09-29T12:10:16;19.10;70.60
29939;DHT22;16799;50.844;5.304;2022-09-29T12:18:46;17.50;77.40
29939;DHT22;16799;50.844;5.304;2022-09-29T12:21:07;17.80;85.70
29939;DHT22;16799;50.844;5.304;2022-09-29T12:23:34;19.80;77.50
29939;DHT22;16799;50.844;5.304;2022-09-29T12:26:08;22.70;63.00
29939;DHT22;16799;50.844;5.304;2022-09-29T12:28:47;24.70;59.20
29939;DHT22;16799;50.844;5.304;2022-09-29T12:31:23;24.40;56.90
29939;DHT22;16799;50.844;5.304;2022-09-29T12:34:09;23.90;57.60
29939;DHT22;16799;50.844;5.304;2022-09-29T12:36:58;23.90;56.10
29939;DHT22;16799;50.844;5.304;2022-09-29T12:51:15;28.50;44.90
29939;DHT22;16799;50.844;5.304;2022-09-29T12:56:50;24.90;51.10
29939;DHT22;16799;50.844;5.304;2022-09-29T13:01:53;28.60;48.90
29939;DHT22;16799;50.844;5.304;2022-09-29T13:07:43;29.60;47.90
29939;DHT22;16799;50.844;5.304;2022-09-29T13:13:28;27.70;48.70
29939;DHT22;16799;50.844;5.304;2022-09-29T13:24:20;31.40;43.50
29939;DHT22;16799;50.844;5.304;2022-09-29T13:26:59;32.10;42.70
29939;DHT22;16799;50.844;5.304;2022-09-29T13:29:30;32.20;42.30
29939;DHT22;16799;50.844;5.304;2022-09-29T13:31:58;31.80;42.60
29939;DHT22;16799;50.844;5.304;2022-09-29T13:34:31;31.20;42.40
29939;DHT22;16799;50.844;5.304;2022-09-29T13:37:18;27.70;45.70
29939;DHT22;16799;50.844;5.304;2022-09-29T13:40:00;25.60;48.80
29939;DHT22;16799;50.844;5.304;2022-09-29T13:42:45;24.50;50.20
29939;DHT22;16799;50.844;5.304;2022-09-29T13:47:45;23.30;54.10
29939;DHT22;16799;50.844;5.304;2022-09-29T13:50:42;22.90;54.00
29939;DHT22;16799;50.844;5.304;2022-09-29T13:56:15;25.60;49.10
29939;DHT22;16799;50.844;5.304;2022-09-29T14:01:11;25.70;48.40
29939;DHT22;16799;50.844;5.304;2022-09-29T14:03:38;25.50;49.20
29939;DHT22;16799;50.844;5.304;2022-09-29T14:06:23;25.90;49.30
29939;DHT22;16799;50.844;5.304;2022-09-29T14:09:00;26.00;47.50
29939;DHT22;16799;50.844;5.304;2022-09-29T14:11:41;24.50;49.70
29939;DHT22;16799;50.844;5.304;2022-09-29T14:14:23;21.90;52.10
29939;DHT22;16799;50.844;5.304;2022-09-29T14:35:39;19.20;65.50
29939;DHT22;16799;50.844;5.304;2022-09-29T14:38:22;18.90;66.40
29939;DHT22;16799;50.844;5.304;2022-09-29T14:43:50;18.50;68.80
29939;DHT22;16799;50.844;5.304;2022-09-29T14:55:50;18.80;69.70
29939;DHT22;16799;50.844;5.304;2022-09-29T15:03:49;18.50;71.20
29939;DHT22;16799;50.844;5.304;2022-09-29T15:06:17;18.90;70.80
29939;DHT22;16799;50.844;5.304;2022-09-29T15:13:57;19.10;69.80
29939;DHT22;16799;50.844;5.304;2022-09-29T15:21:42;19.70;73.20
29939;DHT22;16799;50.844;5.304;2022-09-29T15:27:22;20.00;73.20
29939;DHT22;16799;50.844;5.304;2022-09-29T15:29:53;20.30;69.10
29939;DHT22;16799;50.844;5.304;2022-09-29T15:32:28;20.20;69.40
29939;DHT22;16799;50.844;5.304;2022-09-29T15:35:03;20.10;71.10
29939;DHT22;16799;50.844;5.304;2022-09-29T15:40:43;20.30;67.30
29939;DHT22;16799;50.844;5.304;2022-09-29T15:43:21;20.10;65.40
29939;DHT22;16799;50.844;5.304;2022-09-29T15:45:57;19.90;72.70
29939;DHT22;16799;50.844;5.304;2022-09-29T15:48:24;19.90;71.40
29939;DHT22;16799;50.844;5.304;2022-09-29T15:50:50;19.80;74.40
29939;DHT22;16799;50.844;5.304;2022-09-29T15:53:18;19.60;73.30
29939;DHT22;16799;50.844;5.304;2022-09-29T15:55:44;19.50;77.50
29939;DHT22;16799;50.844;5.304;2022-09-29T16:00:59;18.70;71.70
29939;DHT22;16799;50.844;5.304;2022-09-29T16:03:49;18.20;74.40
29939;DHT22;16799;50.844;5.304;2022-09-29T16:06:32;17.90;77.10
29939;DHT22;16799;50.844;5.304;2022-09-29T16:09:03;17.30;80.70
29939;DHT22;16799;50.844;5.304;2022-09-29T16:11:32;17.30;80.30
29939;DHT22;16799;50.844;5.304;2022-09-29T16:14:19;17.20;83.00
29939;DHT22;16799;50.844;5.304;2022-09-29T16:16:48;16.90;85.10
29939;DHT22;16799;50.844;5.304;2022-09-29T16:21:43;16.80;91.80
29939;DHT22;16799;50.844;5.304;2022-09-29T16:24:17;16.80;92.40
29939;DHT22;16799;50.844;5.304;2022-09-29T16:26:53;16.80;93.40
29939;DHT22;16799;50.844;5.304;2022-09-29T16:31:49;16.70;93.90
29939;DHT22;16799;50.844;5.304;2022-09-29T16:34:30;16.60;94.10
29939;DHT22;16799;50.844;5.304;2022-09-29T16:37:13;16.50;94.60
29939;DHT22;16799;50.844;5.304;2022-09-29T16:39:46;16.50;94.40
29939;DHT22;16799;50.844;5.304;2022-09-29T16:42:26;16.40;94.70
29939;DHT22;16799;50.844;5.304;2022-09-29T16:44:54;16.30;95.70
29939;DHT22;16799;50.844;5.304;2022-09-29T16:47:24;16.30;96.50
29939;DHT22;16799;50.844;5.304;2022-09-29T16:49:55;16.10;97.00
29939;DHT22;16799;50.844;5.304;2022-09-29T16:55:26;15.80;98.00
29939;DHT22;16799;50.844;5.304;2022-09-29T16:58:04;15.60;97.70
29939;DHT22;16799;50.844;5.304;2022-09-29T17:00:32;15.50;99.30
29939;DHT22;16799;50.844;5.304;2022-09-29T17:02:58;15.50;99.10
29939;DHT22;16799;50.844;5.304;2022-09-29T17:05:38;15.50;99.20
29939;DHT22;16799;50.844;5.304;2022-09-29T17:08:34;15.50;99.20
29939;DHT22;16799;50.844;5.304;2022-09-29T17:10:59;15.40;99.30
29939;DHT22;16799;50.844;5.304;2022-09-29T17:13:29;15.30;99.80
29939;DHT22;16799;50.844;5.304;2022-09-29T17:15:57;15.20;99.80
29939;DHT22;16799;50.844;5.304;2022-09-29T17:18:23;14.90;99.90
29939;DHT22;16799;50.844;5.304;2022-09-29T17:20:51;14.50;99.90
29939;DHT22;16799;50.844;5.304;2022-09-29T17:23:17;14.50;99.90
29939;DHT22;16799;50.844;5.304;2022-09-29T17:25:44;14.60;99.90
29939;DHT22;16799;50.844;5.304;2022-09-29T17:28:18;14.60;99.90
29939;DHT22;16799;50.844;5.304;2022-09-29T17:30:47;14.50;99.90
29939;DHT22;16799;50.844;5.304;2022-09-29T17:33:15;14.40;99.90
29939;DHT22;16799;50.844;5.304;2022-09-29T17:35:46;14.30;99.90
29939;DHT22;16799;50.844;5.304;2022-09-29T17:38:14;14.20;99.90
29939;DHT22;16799;50.844;5.304;2022-09-29T17:41:03;14.20;99.90
29939;DHT22;16799;50.844;5.304;2022-09-29T17:43:29;14.20;99.90
29939;DHT22;16799;50.844;5.304;2022-09-29T17:45:56;14.10;99.90
29939;DHT22;16799;50.844;5.304;2022-09-29T17:48:24;14.00;99.90
29939;DHT22;16799;50.844;5.304;2022-09-29T17:50:51;13.90;99.90
29939;DHT22;16799;50.844;5.304;2022-09-29T17:53:19;13.70;99.90
29939;DHT22;16799;50.844;5.304;2022-09-29T17:55:46;13.20;99.90
29939;DHT22;16799;50.844;5.304;2022-09-29T17:58:17;13.20;99.90
29939;DHT22;16799;50.844;5.304;2022-09-29T18:00:48;13.30;99.90
29939;DHT22;16799;50.844;5.304;2022-09-29T18:03:17;13.20;99.90
29939;DHT22;16799;50.844;5.304;2022-09-29T18:05:45;13.20;99.90
29939;DHT22;16799;50.844;5.304;2022-09-29T18:08:16;13.20;99.90
29939;DHT22;16799;50.844;5.304;2022-09-29T18:10:50;13.20;99.90
29939;DHT22;16799;50.844;5.304;2022-09-29T18:13:17;13.10;99.90
29939;DHT22;16799;50.844;5.304;2022-09-29T18:15:43;13.10;99.90
29939;DHT22;16799;50.844;5.304;2022-09-29T18:18:10;13.10;99.90
29939;DHT22;16799;50.844;5.304;2022-09-29T18:20:37;13.00;99.90
29939;DHT22;16799;50.844;5.304;2022-09-29T18:23:04;12.90;99.90
29939;DHT22;16799;50.844;5.304;2022-09-29T18:25:31;12.80;99.90
29939;DHT22;16799;50.844;5.304;2022-09-29T18:27:57;12.80;99.90
29939;DHT22;16799;50.844;5.304;2022-09-29T18:30:25;12.80;99.90
29939;DHT22;16799;50.844;5.304;2022-09-29T18:32:56;12.70;99.90
29939;DHT22;16799;50.844;5.304;2022-09-29T18:35:30;12.50;99.90
29939;DHT22;16799;50.844;5.304;2022-09-29T18:38:01;12.40;99.90
29939;DHT22;16799;50.844;5.304;2022-09-29T18:40:29;12.30;99.90
29939;DHT22;16799;50.844;5.304;2022-09-29T18:42:55;12.30;99.90
29939;DHT22;16799;50.844;5.304;2022-09-29T18:45:29;12.20;99.90
29939;DHT22;16799;50.844;5.304;2022-09-29T18:48:00;12.20;99.90
29939;DHT22;16799;50.844;5.304;2022-09-29T18:50:48;12.20;99.90
29939;DHT22;16799;50.844;5.304;2022-09-29T18:53:17;12.10;99.90
29939;DHT22;16799;50.844;5.304;2022-09-29T18:55:44;12.00;99.90
29939;DHT22;16799;50.844;5.304;2022-09-29T18:58:18;11.90;99.90
29939;DHT22;16799;50.844;5.304;2022-09-29T19:00:47;11.80;99.90
29939;DHT22;16799;50.844;5.304;2022-09-29T19:03:15;11.90;99.90
29939;DHT22;16799;50.844;5.304;2022-09-29T19:05:42;11.80;99.90
29939;DHT22;16799;50.844;5.304;2022-09-29T19:08:10;11.80;99.90
29939;DHT22;16799;50.844;5.304;2022-09-29T19:10:37;11.70;99.90
29939;DHT22;16799;50.844;5.304;2022-09-29T19:13:07;11.70;99.90
29939;DHT22;16799;50.844;5.304;2022-09-29T19:15:37;11.60;99.90
29939;DHT22;16799;50.844;5.304;2022-09-29T19:18:03;11.60;99.90
29939;DHT22;16799;50.844;5.304;2022-09-29T19:20:30;11.50;99.90
29939;DHT22;16799;50.844;5.304;2022-09-29T19:22:57;11.40;99.90
29939;DHT22;16799;50.844;5.304;2022-09-29T19:25:30;11.40;99.90
29939;DHT22;16799;50.844;5.304;2022-09-29T19:27:57;11.20;99.90
29939;DHT22;16799;50.844;5.304;2022-09-29T19:30:25;11.20;99.90
29939;DHT22;16799;50.844;5.304;2022-09-29T19:32:52;11.30;99.90
29939;DHT22;16799;50.844;5.304;2022-09-29T19:35:20;11.30;99.90
29939;DHT22;16799;50.844;5.304;2022-09-29T19:37:47;11.20;99.90
29939;DHT22;16799;50.844;5.304;2022-09-29T19:40:19;10.90;99.90
29939;DHT22;16799;50.844;5.304;2022-09-29T19:42:45;10.90;99.90
29939;DHT22;16799;50.844;5.304;2022-09-29T19:45:11;10.70;99.90